Time;durP1;ratioP1;P1;durP2;ratioP2;P2;SDS_P1;SDS_P2;PMS_P1;PMS_P2;Temp;Humidity;BMP_temperature;BMP_pressure;BME280_temperature;BME280_humidity;BME280_pressure;Samples;Min_cycle;Max_cycle;Signal;HPM_P1;HPM_P2
2023/07/20 00:01:28;;;;;;;10.82;4.10;;;;;;;19.65;57.80;101405.94;5011884;28;20384;-45
2023/07/20 00:03:57;;;;;;;6.15;3.97;;;;;;;19.29;59.78;101405.44;5048743;23;20045;-46
2023/07/20 00:06:27;;;;;;;5.53;4.28;;;;;;;19.45;60.54;101401.88;5031594;28;20026;-45
2023/07/20 00:08:56;;;;;;;9.65;4.15;;;;;;;19.43;60.07;101403.19;5031760;28;20033;-46
2023/07/20 00:11:27;;;;;;;10.65;4.88;;;;;;;19.21;60.87;101389.56;5031927;28;20104;-45
2023/07/20 00:13:53;;;;;;;8.15;4.47;;;;;;;19.17;60.75;101402.03;5031529;28;20372;-46
2023/07/20 00:16:20;;;;;;;6.07;3.85;;;;;;;18.63;62.61;101399.81;5031455;28;20022;-47
2023/07/20 00:18:46;;;;;;;7.80;4.32;;;;;;;18.29;63.30;101398.94;5031617;28;20021;-45
2023/07/20 00:21:12;;;;;;;7.60;4.15;;;;;;;18.37;63.80;101401.25;5031799;28;20053;-45
2023/07/20 00:23:38;;;;;;;11.23;4.93;;;;;;;18.17;65.42;101396.28;5031578;28;20462;-49
2023/07/20 00:26:04;;;;;;;7.03;4.50;;;;;;;17.81;66.99;101388.53;5035313;28;20033;-45
2023/07/20 00:28:31;;;;;;;8.27;4.53;;;;;;;17.77;66.88;101395.53;5071091;28;20033;-48
2023/07/20 00:31:00;;;;;;;7.15;4.65;;;;;;;17.76;66.75;101388.44;5071742;28;20052;-48
2023/07/20 00:33:26;;;;;;;8.57;4.70;;;;;;;17.87;66.94;101382.16;5071508;28;20021;-44
2023/07/20 00:35:52;;;;;;;7.53;4.40;;;;;;;17.97;67.07;101381.53;5071230;28;20546;-47
2023/07/20 00:38:19;;;;;;;7.35;4.32;;;;;;;17.78;67.50;101392.56;5071492;28;20466;-49
2023/07/20 00:40:45;;;;;;;8.98;4.55;;;;;;;17.74;67.59;101385.97;5071336;28;20057;-45
2023/07/20 00:43:12;;;;;;;7.45;4.82;;;;;;;17.45;68.36;101382.38;5071469;28;20418;-45
2023/07/20 00:45:38;;;;;;;10.20;5.03;;;;;;;17.21;69.51;101365.34;5071060;28;20059;-46
2023/07/20 00:48:06;;;;;;;8.02;4.88;;;;;;;17.30;70.01;101371.22;5071817;28;20169;-45
2023/07/20 00:50:34;;;;;;;6.80;4.57;;;;;;;17.40;69.43;101368.75;5071396;28;20474;-47
2023/07/20 00:53:07;;;;;;;7.57;4.85;;;;;;;17.47;70.10;101374.84;5071120;28;20056;-45
2023/07/20 00:55:34;;;;;;;6.88;4.93;;;;;;;17.46;69.98;101364.25;5070873;28;20384;-46
2023/07/20 00:58:00;;;;;;;8.73;4.57;;;;;;;17.50;69.90;101371.66;5071275;28;20031;-48
2023/07/20 01:00:27;;;;;;;7.15;4.00;;;;;;;17.48;70.18;101362.13;5071405;28;20035;-49
2023/07/20 01:02:54;;;;;;;7.85;5.38;;;;;;;17.19;71.07;101364.75;5063479;28;20451;-47
2023/07/20 01:05:21;;;;;;;7.68;4.90;;;;;;;17.29;71.09;101375.81;5025161;28;20057;-48
2023/07/20 01:08:13;;;;;;;6.50;5.00;;;;;;;17.13;71.58;101371.94;5011568;28;20033;-47
2023/07/20 01:11:28;;;;;;;5.88;4.97;;;;;;;16.74;72.77;101365.38;5011315;28;20026;-46
2023/07/20 01:13:56;;;;;;;9.50;5.75;;;;;;;16.85;72.95;101374.53;5008253;28;20488;-45
2023/07/20 01:16:22;;;;;;;10.65;5.82;;;;;;;17.02;72.87;101361.97;5011081;28;20145;-49
2023/07/20 01:18:48;;;;;;;10.48;6.03;;;;;;;17.00;73.53;101366.78;5011413;28;20101;-49
2023/07/20 01:21:22;;;;;;;6.95;5.05;;;;;;;17.05;72.87;101368.78;5011290;28;20034;-49
2023/07/20 01:24:25;;;;;;;8.65;5.30;;;;;;;16.92;73.30;101369.81;5011382;28;20041;-45
2023/07/20 01:27:16;;;;;;;6.10;4.85;;;;;;;16.82;73.62;101361.47;5010954;28;20072;-48
2023/07/20 01:29:51;;;;;;;7.18;5.07;;;;;;;17.13;71.95;101363.00;5011252;28;20061;-48
2023/07/20 01:32:17;;;;;;;;;;;;;;;16.83;73.38;101368.56;5011584;28;20030;-49
2023/07/20 01:34:45;;;;;;;8.32;6.07;;;;;;;16.81;74.30;101378.75;5029567;28;19917;-50
2023/07/20 01:37:12;;;;;;;9.52;5.88;;;;;;;16.84;73.78;101373.72;5012828;28;20475;-46
2023/07/20 01:39:39;;;;;;;9.65;6.22;;;;;;;16.95;73.52;101379.38;5027298;28;20033;-46
2023/07/20 01:42:06;;;;;;;13.68;6.30;;;;;;;16.85;73.59;101382.66;5033307;28;20021;-46
2023/07/20 01:44:32;;;;;;;13.40;6.55;;;;;;;16.61;74.29;101385.31;5034491;28;20112;-48
2023/07/20 01:46:59;;;;;;;12.82;6.75;;;;;;;16.47;75.46;101381.16;5029832;28;20112;-46
2023/07/20 01:49:25;;;;;;;9.85;6.95;;;;;;;16.19;76.64;101378.25;5034213;28;20088;-47
2023/07/20 01:51:51;;;;;;;16.90;7.00;;;;;;;16.19;77.25;101387.19;5034220;28;20030;-46
2023/07/20 01:54:18;;;;;;;12.65;7.38;;;;;;;16.20;77.67;101385.31;5031388;28;20022;-46
2023/07/20 01:56:44;;;;;;;19.25;8.63;;;;;;;16.15;77.62;101382.47;5033641;28;20434;-49
2023/07/20 01:59:10;;;;;;;21.92;9.18;;;;;;;15.84;79.13;101381.66;5033589;28;20025;-46
2023/07/20 02:01:37;;;;;;;18.38;9.18;;;;;;;16.00;78.56;101381.03;5031613;28;20057;-48
2023/07/20 02:04:03;;;;;;;22.85;9.90;;;;;;;15.83;79.12;101378.13;5030312;28;20442;-46
2023/07/20 02:06:29;;;;;;;19.90;9.27;;;;;;;15.66;80.04;101381.69;5033739;28;20494;-46
2023/07/20 02:08:55;;;;;;;22.23;9.77;;;;;;;15.34;82.21;101375.59;5034044;28;20391;-46
2023/07/20 02:11:22;;;;;;;18.77;9.45;;;;;;;15.50;81.92;101385.78;5033572;28;20652;-48
2023/07/20 02:13:48;;;;;;;25.38;9.57;;;;;;;15.52;81.87;101381.78;5051118;28;20055;-49
2023/07/20 02:16:14;;;;;;;30.00;9.75;;;;;;;15.60;81.47;101386.06;5053411;28;20013;-49
2023/07/20 02:18:41;;;;;;;29.08;10.63;;;;;;;15.42;81.68;101380.66;5051821;28;20070;-46
2023/07/20 02:21:07;;;;;;;28.00;9.15;;;;;;;15.34;82.00;101381.81;5051729;28;20473;-46
2023/07/20 02:23:33;;;;;;;19.75;8.93;;;;;;;15.32;82.46;101384.72;5053268;28;20021;-47
2023/07/20 02:25:59;;;;;;;24.08;9.43;;;;;;;15.03;83.56;101393.50;5053129;28;20067;-46
2023/07/20 02:28:26;;;;;;;24.90;10.02;;;;;;;15.10;83.31;101388.88;5047175;28;20053;-48
2023/07/20 02:30:53;;;;;;;32.80;10.82;;;;;;;14.95;84.01;101381.16;5050603;28;20040;-44
2023/07/20 02:33:20;;;;;;;30.55;10.38;;;;;;;14.74;85.40;101378.84;5053364;28;20031;-44
2023/07/20 02:35:46;;;;;;;29.92;11.07;;;;;;;14.86;85.11;101377.09;5049080;28;20395;-44
2023/07/20 02:38:13;;;;;;;32.28;11.57;;;;;;;14.65;86.04;101378.28;5050016;28;20078;-45
2023/07/20 02:40:39;;;;;;;23.95;11.10;;;;;;;14.70;86.16;101373.06;5035084;28;20025;-44
2023/07/20 02:43:05;;;;;;;20.63;10.52;;;;;;;14.44;87.42;101373.28;5053451;28;20159;-44
2023/07/20 02:45:32;;;;;;;30.30;11.52;;;;;;;14.37;87.76;101370.59;5053244;28;20490;-44
2023/07/20 02:47:58;;;;;;;29.50;11.00;;;;;;;14.31;88.55;101374.16;5053520;28;20035;-44
2023/07/20 02:50:24;;;;;;;27.70;11.68;;;;;;;14.33;88.77;101372.09;5053442;28;20028;-47
2023/07/20 02:52:50;;;;;;;39.00;14.88;;;;;;;14.25;89.08;101373.16;5037119;28;20406;-44
2023/07/20 02:55:16;;;;;;;24.50;11.52;;;;;;;14.44;88.62;101373.28;5050341;28;20033;-46
2023/07/20 02:57:43;;;;;;;34.08;12.77;;;;;;;14.46;88.75;101373.88;5051289;28;20387;-47
2023/07/20 03:00:11;;;;;;;31.35;12.13;;;;;;;14.31;90.00;101376.84;5052341;28;20033;-44
2023/07/20 03:02:37;;;;;;;23.65;11.50;;;;;;;14.33;88.96;101373.97;5048637;28;20045;-46
2023/07/20 03:05:07;;;;;;;26.30;10.68;;;;;;;14.29;88.73;101378.13;5050172;28;20144;-47
2023/07/20 03:07:33;;;;;;;24.63;10.50;;;;;;;14.25;88.75;101383.13;5051623;28;20096;-44
2023/07/20 03:09:59;;;;;;;26.30;11.82;;;;;;;14.19;89.26;101384.00;5052926;28;20379;-44
2023/07/20 03:12:26;;;;;;;24.48;11.48;;;;;;;14.09;90.24;101395.22;5052850;28;20024;-45
2023/07/20 03:14:54;;;;;;;22.75;11.82;;;;;;;14.08;90.52;101387.38;5052091;28;20112;-46
2023/07/20 03:17:20;;;;;;;25.10;11.20;;;;;;;14.09;89.90;101391.69;5052826;28;20028;-44
2023/07/20 03:19:46;;;;;;;24.27;11.32;;;;;;;13.99;90.21;101390.31;5052825;28;20031;-46
2023/07/20 03:22:13;;;;;;;26.83;10.95;;;;;;;14.04;90.51;101380.75;5052551;28;20029;-44
2023/07/20 03:24:39;;;;;;;30.50;11.55;;;;;;;13.92;91.17;101383.31;5032715;28;20034;-44
2023/07/20 03:27:05;;;;;;;27.05;10.77;;;;;;;13.97;91.10;101384.31;5032674;28;20021;-46
2023/07/20 03:29:33;;;;;;;26.67;10.68;;;;;;;13.99;90.99;101382.25;5034378;28;20064;-44
2023/07/20 03:31:59;;;;;;;18.92;9.85;;;;;;;14.10;90.35;101385.28;5043893;28;20033;-45
2023/07/20 03:34:26;;;;;;;19.88;9.80;;;;;;;13.97;91.01;101386.19;5030207;28;20028;-45
2023/07/20 03:36:52;;;;;;;27.17;10.68;;;;;;;13.76;92.28;101383.78;5031777;28;20083;-46
2023/07/20 03:39:18;;;;;;;28.20;11.63;;;;;;;13.73;92.76;101385.88;5050422;28;20028;-45
2023/07/20 03:41:44;;;;;;;26.10;10.52;;;;;;;13.79;93.44;101392.28;5051856;28;20029;-44
2023/07/20 03:44:10;;;;;;;28.95;11.68;;;;;;;13.76;93.70;101398.06;5051814;28;20477;-45
2023/07/20 03:46:37;;;;;;;23.90;10.98;;;;;;;13.73;94.34;101409.28;5050047;28;20410;-44
2023/07/20 03:49:03;;;;;;;29.38;12.18;;;;;;;13.87;93.63;101407.34;5032235;28;20446;-45
2023/07/20 03:51:29;;;;;;;28.45;10.98;;;;;;;13.84;92.66;101413.97;5031832;28;20487;-46
2023/07/20 03:53:56;;;;;;;23.80;11.32;;;;;;;13.75;93.15;101412.56;5035741;28;20475;-46
2023/07/20 03:56:22;;;;;;;26.95;11.27;;;;;;;13.71;93.64;101414.03;5059582;23;20033;-48
2023/07/20 03:58:49;;;;;;;26.55;10.82;;;;;;;13.80;93.35;101407.38;5091739;28;20044;-44
2023/07/20 04:01:16;;;;;;;25.42;11.55;;;;;;;13.86;93.34;101411.91;5092126;28;20402;-47
2023/07/20 04:03:43;;;;;;;25.88;11.60;;;;;;;13.84;93.25;101405.91;5091024;28;20020;-45
2023/07/20 04:06:09;;;;;;;24.85;11.02;;;;;;;13.77;93.48;101417.72;5091861;28;20501;-46
2023/07/20 04:08:37;;;;;;;26.95;12.07;;;;;;;13.72;93.46;101415.69;5091950;28;20032;-44
2023/07/20 04:11:03;;;;;;;31.45;11.38;;;;;;;13.64;93.95;101421.28;5091878;28;20522;-44
2023/07/20 04:13:33;;;;;;;28.73;10.90;;;;;;;13.51;94.30;101421.34;5091535;28;20055;-47
2023/07/20 04:15:59;;;;;;;31.05;11.85;;;;;;;13.54;94.56;101429.81;5090924;28;20020;-45
2023/07/20 04:18:25;;;;;;;22.85;10.75;;;;;;;13.63;94.04;101431.22;5091536;28;20028;-45
2023/07/20 04:20:52;;;;;;;22.88;9.45;;;;;;;13.54;93.82;101437.03;5098471;28;20024;-46
2023/07/20 04:23:18;;;;;;;30.70;11.43;;;;;;;13.56;94.25;101438.50;5103391;28;20095;-44
2023/07/20 04:25:44;;;;;;;28.55;10.63;;;;;;;13.49;95.16;101440.34;5073318;28;20056;-45
2023/07/20 04:28:10;;;;;;;34.55;12.18;;;;;;;13.52;95.02;101429.19;5091725;28;20024;-45
2023/07/20 04:30:40;;;;;;;29.17;11.60;;;;;;;13.56;95.31;101443.06;5091655;28;20484;-45
2023/07/20 04:33:06;;;;;;;32.60;12.65;;;;;;;13.57;95.01;101436.63;5091626;28;20056;-45
2023/07/20 04:35:54;;;;;;;31.70;12.48;;;;;;;13.56;95.24;101443.88;5091538;28;20024;-45
2023/07/20 04:38:21;;;;;;;34.72;12.15;;;;;;;13.63;94.61;101444.69;5071380;28;20032;-43
2023/07/20 04:40:49;;;;;;;29.17;10.80;;;;;;;13.58;94.35;101449.03;5078774;28;20500;-43
2023/07/20 04:43:17;;;;;;;28.90;11.77;;;;;;;13.48;95.36;101442.22;5088815;28;20039;-44
2023/07/20 04:45:43;;;;;;;27.20;11.25;;;;;;;13.54;95.29;101450.50;5090880;28;20027;-44
2023/07/20 04:48:12;;;;;;;34.65;14.15;;;;;;;13.52;95.36;101448.03;5091231;28;20032;-44
2023/07/20 04:50:42;;;;;;;26.85;12.45;;;;;;;13.45;95.68;101448.03;5090427;28;20031;-43
2023/07/20 04:53:14;;;;;;;32.97;12.05;;;;;;;13.57;95.50;101445.53;5091235;28;20492;-44
2023/07/20 04:55:50;;;;;;;27.55;11.60;;;;;;;13.60;95.47;101444.25;5091191;28;20038;-46
2023/07/20 04:58:17;;;;;;;29.90;12.48;;;;;;;13.65;94.77;101447.97;5090994;28;20040;-45
2023/07/20 05:00:43;;;;;;;35.20;12.73;;;;;;;13.67;94.95;101443.22;5089405;28;20054;-44
2023/07/20 05:03:09;;;;;;;29.48;13.63;;;;;;;13.63;95.00;101439.31;5089558;28;20020;-45
2023/07/20 05:05:36;;;;;;;25.38;12.18;;;;;;;13.63;94.99;101444.69;5091157;28;20028;-47
2023/07/20 05:08:04;;;;;;;34.17;12.73;;;;;;;13.68;94.57;101452.13;5091389;28;20107;-45
2023/07/20 05:10:30;;;;;;;33.00;12.63;;;;;;;13.72;94.26;101443.44;5091339;28;20111;-47
2023/07/20 05:12:57;;;;;;;32.85;14.10;;;;;;;13.74;93.80;101445.91;5091052;28;20523;-45
2023/07/20 05:15:23;;;;;;;29.38;13.10;;;;;;;13.74;93.84;101444.03;5091693;28;20077;-45
2023/07/20 05:17:49;;;;;;;27.00;13.45;;;;;;;13.77;94.51;101445.47;5094474;28;20024;-45
2023/07/20 05:20:16;;;;;;;29.48;14.15;;;;;;;13.81;93.52;101449.38;5094969;28;20488;-45
2023/07/20 05:22:43;;;;;;;26.58;13.43;;;;;;;13.84;93.15;101454.34;5094942;28;20386;-45
2023/07/20 05:25:10;;;;;;;27.48;13.50;;;;;;;13.78;93.19;101449.81;5084858;28;20032;-43
2023/07/20 05:27:38;;;;;;;30.15;13.43;;;;;;;13.74;93.70;101453.97;5095035;28;20355;-44
2023/07/20 05:30:07;;;;;;;23.30;12.75;;;;;;;13.68;94.20;101452.94;5094602;28;20024;-44
2023/07/20 05:32:33;;;;;;;29.88;13.32;;;;;;;13.71;93.98;101454.38;5094780;28;20028;-45
2023/07/20 05:35:00;;;;;;;31.85;14.15;;;;;;;13.63;94.40;101460.00;5094313;28;20485;-45
2023/07/20 05:37:26;;;;;;;24.85;12.90;;;;;;;13.67;94.63;101459.38;5094574;28;20072;-46
2023/07/20 05:39:52;;;;;;;26.90;12.43;;;;;;;13.70;94.02;101458.94;5094864;28;20062;-44
2023/07/20 05:42:19;;;;;;;34.08;13.90;;;;;;;13.66;94.17;101467.66;5094394;28;20065;-44
2023/07/20 05:44:47;;;;;;;29.02;14.18;;;;;;;13.63;94.65;101460.00;5094189;28;20122;-46
2023/07/20 05:47:13;;;;;;;38.28;14.98;;;;;;;13.68;94.19;101463.72;5094653;28;20020;-43
2023/07/20 05:49:39;;;;;;;32.28;14.15;;;;;;;13.71;94.15;101465.13;5094552;28;20024;-45
2023/07/20 05:52:06;;;;;;;29.88;14.52;;;;;;;13.78;93.36;101457.91;5094430;28;20086;-44
2023/07/20 05:54:32;;;;;;;28.77;15.25;;;;;;;13.78;93.15;101457.91;5093853;28;20043;-46
2023/07/20 05:56:58;;;;;;;28.30;13.82;;;;;;;13.80;93.15;101458.50;5094353;28;20046;-47
2023/07/20 05:59:25;;;;;;;29.92;13.32;;;;;;;13.80;93.07;101463.06;5094264;28;20636;-46
2023/07/20 06:01:51;;;;;;;30.92;13.60;;;;;;;13.78;92.97;101452.50;5094211;28;20063;-43
2023/07/20 06:04:17;;;;;;;31.90;13.20;;;;;;;13.69;92.88;101451.09;5093711;28;20077;-44
2023/07/20 06:06:43;;;;;;;35.10;12.85;;;;;;;13.71;92.99;101462.44;5094072;28;20073;-44
2023/07/20 06:09:11;;;;;;;31.92;13.13;;;;;;;13.65;93.46;101461.44;5089248;28;20438;-45
2023/07/20 06:11:40;;;;;;;23.55;12.93;;;;;;;13.70;93.23;101466.19;5093981;28;20039;-44
2023/07/20 06:14:07;;;;;;;24.45;13.75;;;;;;;13.74;93.29;101451.28;5093733;28;20031;-46
2023/07/20 06:16:33;;;;;;;26.55;13.68;;;;;;;13.69;93.63;101459.97;5092354;28;20008;-45
2023/07/20 06:19:01;;;;;;;31.00;13.70;;;;;;;13.80;93.40;101458.50;5093822;28;20367;-47
2023/07/20 06:21:27;;;;;;;37.35;14.32;;;;;;;13.84;93.15;101457.03;5093817;28;20103;-43
2023/07/20 06:23:53;;;;;;;29.75;13.88;;;;;;;13.76;93.55;101453.75;5085087;28;20036;-45
2023/07/20 06:26:20;;;;;;;26.55;14.10;;;;;;;13.84;92.54;101461.59;5072915;28;20036;-44
2023/07/20 06:28:46;;;;;;;33.95;14.15;;;;;;;13.84;92.42;101456.22;5073134;28;20562;-44
2023/07/20 06:31:13;;;;;;;35.67;15.68;;;;;;;13.85;92.85;101453.31;5073469;28;20064;-46
2023/07/20 06:33:39;;;;;;;32.60;14.27;;;;;;;13.86;93.12;101465.72;5079735;28;20059;-44
2023/07/20 06:36:05;;;;;;;30.77;14.20;;;;;;;13.80;93.46;101466.56;5093442;28;20272;-43
2023/07/20 06:38:32;;;;;;;29.85;12.88;;;;;;;13.87;92.81;101471.91;5093582;28;20466;-44
2023/07/20 06:40:58;;;;;;;33.97;12.45;;;;;;;13.76;93.26;101459.13;5093485;28;20040;-44
2023/07/20 06:43:24;;;;;;;30.40;12.50;;;;;;;13.69;93.99;101454.59;5093212;28;20020;-44
2023/07/20 06:45:54;;;;;;;32.65;13.63;;;;;;;13.82;93.31;101455.59;5093111;28;20024;-44
2023/07/20 06:48:21;;;;;;;25.73;12.80;;;;;;;13.89;92.97;101457.22;5091964;28;20070;-45
2023/07/20 06:50:48;;;;;;;32.17;13.45;;;;;;;13.85;92.87;101449.78;5091994;28;20028;-46
2023/07/20 06:53:14;;;;;;;30.45;14.73;;;;;;;13.90;92.39;101440.03;5093297;28;20032;-44
2023/07/20 06:55:42;;;;;;;35.38;15.05;;;;;;;13.93;92.70;101442.28;5092706;28;20016;-44
2023/07/20 06:58:09;;;;;;;31.27;15.52;;;;;;;13.88;92.85;101452.91;5092962;28;20127;-44
2023/07/20 07:00:35;;;;;;;26.98;14.27;;;;;;;13.85;93.66;101447.91;5092294;28;20257;-44
2023/07/20 07:03:02;;;;;;;35.28;14.73;;;;;;;13.93;93.42;101453.06;5093441;28;20054;-44
2023/07/20 07:05:28;;;;;;;34.65;13.75;;;;;;;13.91;93.37;101452.44;5092626;28;20474;-44
2023/07/20 07:07:55;;;;;;;26.75;12.57;;;;;;;13.91;93.21;101463.22;5093185;28;20040;-44
2023/07/20 07:10:21;;;;;;;32.20;13.73;;;;;;;13.89;93.23;101454.53;5093041;28;20058;-44
2023/07/20 07:12:47;;;;;;;26.33;12.77;;;;;;;13.88;93.12;101452.03;5092931;28;20020;-44
2023/07/20 07:15:13;;;;;;;34.05;12.57;;;;;;;13.95;92.88;101456.38;5091588;28;20024;-44
2023/07/20 07:17:40;;;;;;;35.47;12.07;;;;;;;14.04;91.93;101459.63;5091033;28;20080;-44
2023/07/20 07:20:07;;;;;;;30.17;12.43;;;;;;;14.05;91.55;101464.00;5091091;28;20027;-44
2023/07/20 07:22:33;;;;;;;25.15;11.45;;;;;;;13.90;92.47;101460.75;5092347;28;20425;-44
2023/07/20 07:25:00;;;;;;;28.27;11.90;;;;;;;13.96;91.93;101462.59;5074518;28;20033;-44
2023/07/20 07:27:26;;;;;;;35.90;13.35;;;;;;;13.89;92.69;101464.47;5083774;28;20495;-44
2023/07/20 07:29:52;;;;;;;29.48;12.38;;;;;;;13.99;92.03;101452.22;5092686;28;20050;-44
2023/07/20 07:32:19;;;;;;;39.72;13.35;;;;;;;14.04;92.22;101453.44;5092574;28;20035;-44
2023/07/20 07:34:46;;;;;;;31.98;11.90;;;;;;;14.03;92.48;101449.91;5092110;28;20027;-44
2023/07/20 07:37:13;;;;;;;27.90;12.95;;;;;;;14.02;92.71;101452.81;5092589;28;20047;-46
2023/07/20 07:39:39;;;;;;;31.10;12.32;;;;;;;14.02;92.79;101460.91;5092271;28;20097;-44
2023/07/20 07:42:06;;;;;;;25.85;11.45;;;;;;;14.08;91.85;101449.28;5092187;28;20028;-44
2023/07/20 07:44:32;;;;;;;34.65;11.60;;;;;;;14.05;91.67;101457.78;5092051;28;20489;-45
2023/07/20 07:46:58;;;;;;;35.97;11.50;;;;;;;14.04;91.38;101462.31;5092402;28;20135;-43
2023/07/20 07:49:25;;;;;;;29.70;10.73;;;;;;;14.05;91.26;101457.78;5092213;28;20024;-46
2023/07/20 07:51:51;;;;;;;28.10;10.73;;;;;;;14.06;91.54;101462.13;5092073;28;20020;-44
2023/07/20 07:54:17;;;;;;;30.67;11.00;;;;;;;14.11;91.07;101456.94;5091436;28;20103;-45
2023/07/20 07:56:44;;;;;;;25.63;10.25;;;;;;;14.11;90.79;101462.31;5091950;28;20047;-44
2023/07/20 07:59:11;;;;;;;31.25;11.35;;;;;;;14.10;91.04;101461.50;5092076;28;20031;-46
2023/07/20 08:01:37;;;;;;;27.13;10.35;;;;;;;14.08;91.31;101462.75;5091974;28;20020;-44
2023/07/20 08:04:03;;;;;;;20.33;9.73;;;;;;;14.04;91.86;101462.31;5091434;28;20052;-44
2023/07/20 08:06:31;;;;;;;29.35;10.43;;;;;;;14.05;91.67;101463.16;5091970;28;20527;-44
2023/07/20 08:08:57;;;;;;;38.33;11.00;;;;;;;14.03;91.62;101458.00;5091937;28;20394;-44
2023/07/20 08:11:24;;;;;;;29.98;10.77;;;;;;;14.10;91.51;101455.25;5091694;28;20031;-44
2023/07/20 08:13:50;;;;;;;34.05;11.13;;;;;;;13.99;91.64;101454.91;5091591;28;20057;-44
2023/07/20 08:16:16;;;;;;;26.38;10.52;;;;;;;13.96;91.63;101444.56;5091571;28;20024;-44
2023/07/20 08:18:44;;;;;;;34.92;10.23;;;;;;;13.96;91.62;101441.88;5091867;28;20382;-44
2023/07/20 08:21:10;;;;;;;29.38;9.88;;;;;;;13.83;92.40;101441.94;5087618;28;20099;-45
2023/07/20 08:23:36;;;;;;;31.70;11.98;;;;;;;13.95;91.67;101451.00;5085526;28;20036;-44
2023/07/20 08:26:03;;;;;;;22.90;12.13;;;;;;;13.94;91.26;101452.03;5071125;28;20474;-43
2023/07/20 08:28:30;;;;;;;22.60;12.00;;;;;;;13.95;90.79;101448.31;5089070;28;20024;-43
2023/07/20 08:30:56;;;;;;;20.60;9.88;;;;;;;13.90;91.45;101450.81;5090396;28;20505;-44
2023/07/20 08:33:23;;;;;;;25.80;10.35;;;;;;;13.77;92.63;101445.47;5090289;28;20024;-44
2023/07/20 08:35:49;;;;;;;21.27;10.55;;;;;;;13.77;92.86;101439.25;5091083;28;20024;-44
2023/07/20 08:38:16;;;;;;;26.88;11.30;;;;;;;13.65;93.09;101437.22;5091293;28;20020;-44
2023/07/20 08:40:45;;;;;;;27.65;10.85;;;;;;;13.68;93.38;101433.28;5091692;28;20565;-44
2023/07/20 08:43:12;;;;;;;28.52;11.40;;;;;;;13.65;93.41;101437.22;5091577;28;20496;-43
2023/07/20 08:45:40;;;;;;;25.90;13.27;;;;;;;13.55;94.07;101433.31;5091191;28;20077;-43
2023/07/20 08:48:08;;;;;;;22.95;11.90;;;;;;;13.62;93.69;101429.59;5091271;28;20085;-44
2023/07/20 08:50:36;;;;;;;29.08;11.23;;;;;;;13.60;94.03;101428.13;5092149;28;20028;-44
2023/07/20 08:53:03;;;;;;;24.95;10.68;;;;;;;13.57;93.74;101439.31;5095689;28;20055;-45
2023/07/20 08:55:30;;;;;;;27.70;11.35;;;;;;;13.57;93.96;101423.19;5095352;28;20063;-45
2023/07/20 08:57:58;;;;;;;21.85;11.70;;;;;;;13.65;93.64;101422.94;5093867;28;20117;-46
2023/07/20 09:00:26;;;;;;;22.45;11.60;;;;;;;13.62;94.03;101426.06;5094256;28;20077;-48
2023/07/20 09:02:57;;;;;;;23.48;11.73;;;;;;;13.61;94.32;101421.75;5095385;28;20016;-44
2023/07/20 09:05:24;;;;;;;23.83;11.23;;;;;;;13.67;94.21;101423.56;5095118;28;20492;-44
2023/07/20 09:07:52;;;;;;;29.13;13.05;;;;;;;13.69;94.06;101427.69;5095164;28;20666;-47
2023/07/20 09:10:22;;;;;;;26.60;10.98;;;;;;;13.68;93.83;101417.97;5095148;28;20024;-44
2023/07/20 09:12:49;;;;;;;23.40;10.25;;;;;;;13.71;93.90;101422.09;5095159;28;20081;-46
2023/07/20 09:15:16;;;;;;;24.23;11.05;;;;;;;13.79;93.41;101419.19;5094846;28;20024;-46
2023/07/20 09:17:50;;;;;;;26.77;10.77;;;;;;;13.84;93.08;101427.44;5093694;28;20097;-44
2023/07/20 09:20:18;;;;;;;21.93;9.87;;;;;;;13.78;93.02;101422.91;5093036;28;20024;-44
2023/07/20 09:22:45;;;;;;;18.63;10.55;;;;;;;13.78;93.55;101425.59;5094983;28;20470;-44
2023/07/20 09:25:17;;;;;;;26.42;10.18;;;;;;;13.78;93.33;101427.47;5085271;28;20040;-44
2023/07/20 09:27:46;;;;;;;19.15;10.07;;;;;;;13.86;92.60;101427.22;5095003;28;20024;-44
2023/07/20 09:30:14;;;;;;;31.95;11.40;;;;;;;13.90;92.23;101423.06;5094889;28;20020;-45
2023/07/20 09:32:45;;;;;;;23.10;11.45;;;;;;;13.92;92.36;101427.19;5094704;28;20032;-46
2023/07/20 09:35:16;;;;;;;23.50;11.48;;;;;;;13.93;92.38;101426.13;5094513;28;20397;-44
2023/07/20 09:38:02;;;;;;;25.05;11.45;;;;;;;14.04;92.05;101424.66;5094758;28;20103;-43
2023/07/20 09:40:29;;;;;;;23.67;10.55;;;;;;;13.97;91.99;101423.84;5094812;28;20051;-44
2023/07/20 09:43:03;;;;;;;26.55;12.00;;;;;;;13.89;92.73;101416.03;5092509;28;20116;-45
2023/07/20 09:45:50;;;;;;;26.67;11.55;;;;;;;13.81;93.25;101425.16;5094310;28;20035;-43
2023/07/20 09:48:16;;;;;;;21.20;10.85;;;;;;;13.80;93.07;101426.22;5094541;28;20043;-43
2023/07/20 09:50:50;;;;;;;21.13;11.05;;;;;;;13.83;92.65;101423.09;5094579;28;20024;-44
2023/07/20 09:53:18;;;;;;;21.77;10.02;;;;;;;13.91;91.75;101422.84;5093454;22;20052;-45
2023/07/20 09:55:48;;;;;;;35.95;12.15;;;;;;;13.88;91.87;101425.97;5074102;28;20126;-43
2023/07/20 09:58:16;;;;;;;26.90;11.40;;;;;;;13.99;91.49;101422.63;5071691;28;20028;-45
2023/07/20 10:00:46;;;;;;;28.63;10.50;;;;;;;13.94;91.65;101419.75;5074148;28;20107;-42
2023/07/20 10:03:18;;;;;;;21.02;10.75;;;;;;;13.93;91.05;101418.06;5077567;28;20039;-42
2023/07/20 10:06:03;;;;;;;23.55;10.93;;;;;;;13.96;91.17;101417.66;5094111;28;20048;-42
2023/07/20 10:08:30;;;;;;;25.50;11.20;;;;;;;13.99;90.87;101400.22;5072385;28;20036;-42
2023/07/20 10:11:00;;;;;;;28.58;12.43;;;;;;;13.89;91.93;101406.09;5073910;28;20595;-41
2023/07/20 10:13:29;;;;;;;31.27;12.20;;;;;;;13.97;91.46;101407.72;5073540;28;20033;-45
2023/07/20 10:16:05;;;;;;;26.23;12.57;;;;;;;13.92;91.75;101416.41;5073668;28;20032;-45
2023/07/20 10:18:50;;;;;;;25.67;11.65;;;;;;;13.95;92.02;101416.00;5073461;28;20032;-44
2023/07/20 10:21:19;;;;;;;25.80;11.77;;;;;;;13.94;92.33;101408.16;5071409;28;20500;-44
2023/07/20 10:23:46;;;;;;;27.85;11.85;;;;;;;14.02;92.17;101407.06;5065972;28;20042;-44
2023/07/20 10:26:14;;;;;;;24.02;12.77;;;;;;;14.02;91.75;101410.59;5053432;28;20053;-45
2023/07/20 10:28:41;;;;;;;26.55;12.52;;;;;;;14.08;91.77;101411.59;5056672;28;20024;-44
2023/07/20 10:31:09;;;;;;;23.52;11.98;;;;;;;14.05;91.76;101415.56;5073152;28;20059;-44
2023/07/20 10:33:38;;;;;;;29.67;11.77;;;;;;;14.05;91.90;101418.25;5073339;28;20027;-43
2023/07/20 10:36:05;;;;;;;20.52;10.98;;;;;;;13.94;92.23;101408.97;5071787;28;20024;-44
2023/07/20 10:38:47;;;;;;;21.80;11.05;;;;;;;14.05;91.97;101407.47;5072839;28;20028;-45
2023/07/20 10:41:34;;;;;;;25.58;10.90;;;;;;;14.04;92.12;101413.06;5073347;28;20428;-44
2023/07/20 10:44:09;;;;;;;23.67;11.32;;;;;;;14.08;91.68;101408.91;5072913;28;20082;-44
2023/07/20 10:46:38;;;;;;;30.92;11.50;;;;;;;13.96;91.70;101409.56;5073293;28;20029;-44
2023/07/20 10:49:06;;;;;;;25.83;11.73;;;;;;;14.03;91.62;101397.94;5073070;28;20108;-44
2023/07/20 10:51:45;;;;;;;31.42;10.65;;;;;;;14.06;90.92;101401.06;5071448;28;20104;-45
2023/07/20 10:54:17;;;;;;;23.75;9.45;;;;;;;14.03;91.18;101414.09;5072482;28;20036;-46
2023/07/20 10:56:47;;;;;;;22.08;9.77;;;;;;;13.93;90.99;101401.91;5070996;28;20389;-44
2023/07/20 10:59:20;;;;;;;34.10;10.75;;;;;;;13.96;91.27;101409.56;5072827;28;20048;-45
2023/07/20 11:01:50;;;;;;;24.90;10.02;;;;;;;13.97;91.01;101405.03;5072910;28;20104;-44
2023/07/20 11:04:20;;;;;;;29.80;10.63;;;;;;;13.93;91.41;101401.09;5072263;28;20036;-44
2023/07/20 11:06:55;;;;;;;23.17;9.98;;;;;;;13.86;92.01;101400.31;5070765;28;20490;-45
2023/07/20 11:09:25;;;;;;;27.42;10.35;;;;;;;13.87;92.48;101404.66;5072907;28;20386;-47
2023/07/20 11:12:13;;;;;;;24.67;10.55;;;;;;;13.99;92.21;101401.09;5072774;28;20025;-44
2023/07/20 11:14:57;;;;;;;26.30;10.07;;;;;;;13.85;92.82;101407.56;5072042;28;20544;-44
2023/07/20 11:17:32;;;;;;;34.60;10.57;;;;;;;13.93;92.46;101399.22;5072532;28;20027;-47